createdAt,value
2018-04-07T00:01:02.784Z,101132.86
2018-04-07T00:02:08.110Z,101125.53
2018-04-07T00:03:12.307Z,101124.72
2018-04-07T00:04:18.024Z,101124.28
2018-04-07T00:05:23.134Z,101125.94
2018-04-07T00:06:28.323Z,101127.32
2018-04-07T00:07:32.603Z,101124.76
2018-04-07T00:08:36.791Z,101127.77
2018-04-07T00:09:41.730Z,101125.29
2018-04-07T00:10:46.758Z,101124.87
2018-04-07T00:11:51.060Z,101117.20
2018-04-07T00:12:55.941Z,101118.11
2018-04-07T00:14:00.195Z,101112.92
2018-04-07T00:15:04.443Z,101119.05
2018-04-07T00:16:08.658Z,101112.70
2018-04-07T00:17:12.878Z,101118.24
2018-04-07T00:18:17.527Z,101116.98
2018-04-07T00:19:22.039Z,101117.48
2018-04-07T00:20:26.818Z,101119.62
2018-04-07T00:21:31.065Z,101119.14
2018-04-07T00:22:35.265Z,101117.03
2018-04-07T00:23:39.450Z,101120.48
2018-04-07T00:24:43.840Z,101116.65
2018-04-07T00:25:48.575Z,101118.85
2018-04-07T00:26:52.968Z,101117.05
2018-04-07T00:27:57.414Z,101123.91
2018-04-07T00:29:01.611Z,101121.37
2018-04-07T00:30:06.574Z,101122.64
2018-04-07T00:31:10.771Z,101117.53
2018-04-07T00:32:15.877Z,101124.38
2018-04-07T00:33:20.493Z,101113.80
2018-04-07T00:34:25.973Z,101121.03
2018-04-07T00:35:30.321Z,101118.53
2018-04-07T00:36:34.518Z,101119.73
2018-04-07T00:37:38.729Z,101113.81
2018-04-07T00:38:43.034Z,101114.71
2018-04-07T00:39:48.250Z,101121.58
2018-04-07T00:40:52.990Z,101117.27
2018-04-07T00:41:57.314Z,101113.50
2018-04-07T00:43:02.334Z,101108.80
2018-04-07T00:44:06.584Z,101114.76
2018-04-07T00:45:10.780Z,101110.53
2018-04-07T00:46:15.444Z,101111.37
2018-04-07T00:47:20.247Z,101112.30
2018-04-07T00:48:24.563Z,101102.52
2018-04-07T00:49:29.761Z,101108.48
2018-04-07T00:50:33.966Z,101106.75
2018-04-07T00:51:38.168Z,101103.36
2018-04-07T00:52:56.420Z,101101.71
2018-04-07T00:54:00.643Z,101101.33
2018-04-07T00:55:05.823Z,101096.67
2018-04-07T00:56:10.001Z,101095.02
2018-04-07T00:57:14.688Z,101100.61
2018-04-07T00:58:19.936Z,101092.94
2018-04-07T00:59:24.173Z,101102.70
2018-04-07T01:00:29.368Z,101095.04
2018-04-07T01:01:33.568Z,101100.14
2018-04-07T01:02:37.756Z,101101.87
2018-04-07T01:03:42.705Z,101096.81
2018-04-07T01:04:48.274Z,101092.95
2018-04-07T01:05:52.653Z,101098.55
2018-04-07T01:06:57.079Z,101087.46
2018-04-07T01:08:01.348Z,101096.81
2018-04-07T01:09:06.416Z,101090.86
2018-04-07T01:10:10.612Z,101095.16
2018-04-07T01:11:15.424Z,101090.03
2018-04-07T01:12:20.031Z,101097.70
2018-04-07T01:13:24.417Z,101091.31
2018-04-07T01:14:28.872Z,101091.34
2018-04-07T01:15:33.843Z,101089.66
2018-04-07T01:16:38.035Z,101087.96
2018-04-07T01:17:42.221Z,101087.59
2018-04-07T01:18:47.173Z,101089.31
2018-04-07T01:19:51.614Z,101089.78
2018-04-07T01:20:56.258Z,101089.36
2018-04-07T01:22:01.243Z,101095.30
2018-04-07T01:23:05.443Z,101092.41
2018-04-07T01:24:09.634Z,101092.00
2018-04-07T01:25:14.998Z,101091.66
2018-04-07T01:26:19.486Z,101087.40
2018-04-07T01:27:24.620Z,101089.02
2018-04-07T01:28:29.346Z,101086.48
2018-04-07T01:29:34.419Z,101086.91
2018-04-07T01:30:38.606Z,101080.96
2018-04-07T01:31:42.815Z,101084.00
2018-04-07T01:32:47.520Z,101084.82
2018-04-07T01:33:52.087Z,101086.55
2018-04-07T01:34:57.178Z,101083.16
2018-04-07T01:36:01.501Z,101082.30
2018-04-07T01:37:05.722Z,101078.92
2018-04-07T01:38:09.991Z,101078.47
2018-04-07T01:39:14.361Z,101077.73
2018-04-07T01:40:19.579Z,101071.91
2018-04-07T01:41:24.041Z,101079.56
2018-04-07T01:42:28.513Z,101073.23
2018-04-07T01:43:33.136Z,101072.37
2018-04-07T01:44:37.327Z,101074.92
2018-04-07T01:45:42.312Z,101074.88
2018-04-07T01:46:46.974Z,101071.94
2018-04-07T01:47:51.906Z,101071.47
2018-04-07T01:48:56.346Z,101076.16
2018-04-07T01:50:00.580Z,101071.92
2018-04-07T01:51:04.819Z,101070.27
2018-04-07T01:52:09.019Z,101067.73
2018-04-07T01:53:13.424Z,101073.30
2018-04-07T01:54:18.080Z,101072.38
2018-04-07T01:55:22.824Z,101068.64
2018-04-07T01:56:27.126Z,101066.85
2018-04-07T01:57:31.350Z,101066.03
2018-04-07T01:58:35.560Z,101063.89
2018-04-07T01:59:39.742Z,101063.91
2018-04-07T02:00:45.135Z,101063.92
2018-04-07T02:01:49.894Z,101063.47
2018-04-07T02:02:54.126Z,101062.20
2018-04-07T02:03:59.459Z,101070.73
2018-04-07T02:05:04.427Z,101064.73
2018-04-07T02:06:08.636Z,101064.30
2018-04-07T02:07:12.927Z,101059.66
2018-04-07T02:08:17.568Z,101064.34
2018-04-07T02:09:21.946Z,101063.07
2018-04-07T02:10:26.399Z,101061.29
2018-04-07T02:11:30.607Z,101052.78
2018-04-07T02:12:35.144Z,101054.53
2018-04-07T02:13:39.344Z,101054.16
2018-04-07T02:14:44.064Z,101054.55
2018-04-07T02:15:49.295Z,101052.45
2018-04-07T02:16:54.376Z,101054.99
2018-04-07T02:17:58.796Z,101055.88
2018-04-07T02:19:02.992Z,101057.62
2018-04-07T02:20:07.198Z,101050.81
2018-04-07T02:21:11.406Z,101050.77
2018-04-07T02:22:16.402Z,101050.78
2018-04-07T02:23:22.397Z,101047.78
2018-04-07T02:24:26.737Z,101044.42
2018-04-07T02:25:30.999Z,101042.25
2018-04-07T02:26:35.193Z,101040.16
2018-04-07T02:27:39.383Z,101042.77
2018-04-07T02:28:43.848Z,101036.41
2018-04-07T02:29:49.300Z,101042.34
2018-04-07T02:30:53.605Z,101039.03
2018-04-07T02:31:58.007Z,101035.61
2018-04-07T02:33:02.289Z,101041.52
2018-04-07T02:34:07.234Z,101039.34
2018-04-07T02:35:11.580Z,101038.13
2018-04-07T02:36:16.297Z,101035.94
2018-04-07T02:37:20.641Z,101038.53
2018-04-07T02:38:26.100Z,101035.52
2018-04-07T02:39:30.311Z,101032.11
2018-04-07T02:40:34.562Z,101031.79
2018-04-07T02:41:38.778Z,101032.25
2018-04-07T02:42:42.994Z,101029.28
2018-04-07T02:43:47.900Z,101027.13
2018-04-07T02:44:52.256Z,101023.75
2018-04-07T02:45:57.325Z,101022.02
2018-04-07T02:47:01.572Z,101022.37
2018-04-07T02:48:05.772Z,101024.48
2018-04-07T02:49:10.015Z,101016.48
2018-04-07T02:50:15.444Z,101019.01
2018-04-07T02:51:20.033Z,101020.70
2018-04-07T02:52:24.415Z,101017.75
2018-04-07T02:53:28.748Z,101019.45
2018-04-07T02:54:33.378Z,101019.02
2018-04-07T02:55:37.562Z,101018.64
2018-04-07T02:56:41.766Z,101017.80
2018-04-07T02:57:47.697Z,101018.19
2018-04-07T02:58:52.167Z,101016.48
2018-04-07T02:59:57.255Z,101016.42
2018-04-07T03:01:01.460Z,101019.03
2018-04-07T03:02:06.431Z,101020.73
2018-04-07T03:03:10.629Z,101021.56
2018-04-07T03:04:15.244Z,101015.63
2018-04-07T03:05:19.986Z,101020.70
2018-04-07T03:06:24.276Z,101025.00
2018-04-07T03:07:28.805Z,101020.28
2018-04-07T03:08:33.033Z,101019.84
2018-04-07T03:09:37.281Z,101019.47
2018-04-07T03:10:41.475Z,101022.04
2018-04-07T03:11:46.044Z,101023.78
2018-04-07T03:12:50.684Z,101019.95
2018-04-07T03:13:54.991Z,101025.01
2018-04-07T03:14:59.675Z,101016.54
2018-04-07T03:16:03.876Z,101021.27
2018-04-07T03:17:08.062Z,101019.58
2018-04-07T03:18:12.351Z,101022.09
2018-04-07T03:19:17.170Z,101021.28
2018-04-07T03:20:21.479Z,101025.94
2018-04-07T03:21:25.796Z,101020.81
2018-04-07T03:22:30.091Z,101020.77
2018-04-07T03:23:34.299Z,101023.77
2018-04-07T03:24:39.245Z,101023.77
2018-04-07T03:25:43.880Z,101026.78
2018-04-07T03:26:48.363Z,101021.27
2018-04-07T03:27:52.872Z,101024.23
2018-04-07T03:28:57.217Z,101020.40
2018-04-07T03:30:01.456Z,101018.73
2018-04-07T03:31:05.662Z,101018.30
2018-04-07T03:32:09.845Z,101015.80
2018-04-07T03:33:14.209Z,101009.88
2018-04-07T03:34:19.003Z,101012.84
2018-04-07T03:35:23.479Z,101010.31
2018-04-07T03:36:28.792Z,101009.83
2018-04-07T03:37:32.975Z,101008.59
2018-04-07T03:38:37.173Z,101013.28
2018-04-07T03:39:41.345Z,101011.98
2018-04-07T03:40:46.591Z,101010.27
2018-04-07T03:41:51.060Z,101017.09
2018-04-07T03:42:55.815Z,101018.80
2018-04-07T03:44:00.551Z,101017.10
2018-04-07T03:45:05.518Z,101018.83
2018-04-07T03:46:09.734Z,101012.89
2018-04-07T03:47:14.162Z,101012.89
2018-04-07T03:48:18.768Z,101011.17
2018-04-07T03:49:23.118Z,101009.99
2018-04-07T03:50:28.325Z,101004.95
2018-04-07T03:51:32.499Z,101004.89
2018-04-07T03:52:36.708Z,101003.17
2018-04-07T03:53:40.888Z,100999.34
2018-04-07T03:54:45.431Z,101000.67
2018-04-07T03:55:50.952Z,101002.40
2018-04-07T03:56:56.396Z,101001.14
2018-04-07T03:58:01.384Z,100999.44
2018-04-07T03:59:05.588Z,100999.41
2018-04-07T04:00:09.780Z,100996.02
2018-04-07T04:01:15.110Z,100998.16
2018-04-07T04:02:19.585Z,101001.96
2018-04-07T04:03:24.751Z,100993.06
2018-04-07T04:04:29.389Z,100991.38
2018-04-07T04:05:33.595Z,100991.41
2018-04-07T04:06:37.797Z,100987.59
2018-04-07T04:07:41.988Z,100989.77
2018-04-07T04:08:47.672Z,100987.65
2018-04-07T04:09:52.121Z,100988.56
2018-04-07T04:10:57.170Z,100985.12
2018-04-07T04:12:01.457Z,100987.69
2018-04-07T04:13:05.660Z,100984.30
2018-04-07T04:14:09.899Z,100978.77
2018-04-07T04:15:14.263Z,100981.31
2018-04-07T04:16:19.396Z,100983.83
2018-04-07T04:17:23.663Z,100984.27
2018-04-07T04:18:29.103Z,100980.03
2018-04-07T04:19:34.184Z,100980.91
2018-04-07T04:20:38.736Z,100979.64
2018-04-07T04:21:43.005Z,100978.38
2018-04-07T04:22:47.482Z,100973.73
2018-04-07T04:23:52.550Z,100973.73
2018-04-07T04:24:56.802Z,100976.28
2018-04-07T04:26:01.073Z,100967.75
2018-04-07T04:27:05.271Z,100967.38
2018-04-07T04:28:09.512Z,100971.20
2018-04-07T04:29:13.797Z,100968.25
2018-04-07T04:30:19.141Z,100968.27
2018-04-07T04:31:24.765Z,100968.70
2018-04-07T04:32:29.063Z,100965.73
2018-04-07T04:33:34.016Z,100971.73
2018-04-07T04:34:38.987Z,100968.73
2018-04-07T04:35:43.285Z,100969.16
2018-04-07T04:36:48.311Z,100976.37
2018-04-07T04:37:53.111Z,100976.83
2018-04-07T04:38:58.012Z,100981.09
2018-04-07T04:40:02.504Z,100972.63
2018-04-07T04:41:06.715Z,100972.19
2018-04-07T04:42:10.911Z,100970.91
2018-04-07T04:43:17.181Z,100974.28
2018-04-07T04:44:22.042Z,100977.65
2018-04-07T04:45:27.156Z,100971.70
2018-04-07T04:46:31.418Z,100969.56
2018-04-07T04:47:36.375Z,100976.39
2018-04-07T04:48:40.563Z,100973.88
2018-04-07T04:49:45.842Z,100970.05
2018-04-07T04:50:51.450Z,100972.56
2018-04-07T04:51:55.917Z,100970.01
2018-04-07T04:53:00.919Z,100973.83
2018-04-07T04:54:05.123Z,100973.37
2018-04-07T04:55:09.320Z,100973.84
2018-04-07T04:56:14.582Z,100968.74
2018-04-07T04:57:19.755Z,100971.34
2018-04-07T04:58:24.096Z,100967.91
2018-04-07T04:59:28.399Z,100965.73
2018-04-07T05:00:32.679Z,100964.91
2018-04-07T05:01:37.672Z,100966.63
2018-04-07T05:02:41.864Z,100962.34
2018-04-07T05:03:46.265Z,100963.63
2018-04-07T05:04:51.543Z,100962.41
2018-04-07T05:05:55.806Z,100961.14
2018-04-07T05:07:00.092Z,100957.32
2018-04-07T05:08:05.051Z,100953.95
2018-04-07T05:09:09.249Z,100951.41
2018-04-07T05:10:13.799Z,100958.61
2018-04-07T05:11:19.339Z,100959.49
2018-04-07T05:12:23.619Z,100958.17
2018-04-07T05:13:28.452Z,100961.98
2018-04-07T05:14:32.656Z,100965.78
2018-04-07T05:15:36.865Z,100964.07
2018-04-07T05:16:41.853Z,100964.91
2018-04-07T05:17:47.023Z,100961.08
2018-04-07T05:18:51.695Z,100958.95
2018-04-07T05:19:55.955Z,100960.19
2018-04-07T05:21:00.285Z,100959.78
2018-04-07T05:22:04.475Z,100961.44
2018-04-07T05:23:09.438Z,100962.70
2018-04-07T05:24:14.944Z,100957.98
2018-04-07T05:25:21.124Z,100960.98
2018-04-07T05:26:25.949Z,100955.04
2018-04-07T05:27:30.152Z,100951.18
2018-04-07T05:28:34.335Z,100955.50
2018-04-07T05:29:38.535Z,100954.22
2018-04-07T05:30:42.730Z,100950.41
2018-04-07T05:31:47.395Z,100948.67
2018-04-07T05:32:51.905Z,100941.86
2018-04-07T05:33:56.213Z,100946.52
2018-04-07T05:35:01.259Z,100938.94
2018-04-07T05:36:05.442Z,100935.95
2018-04-07T05:37:11.143Z,100939.30
2018-04-07T05:38:15.673Z,100940.56
2018-04-07T05:39:20.051Z,100937.52
2018-04-07T05:40:24.348Z,100937.12
2018-04-07T05:41:28.685Z,100932.83
2018-04-07T05:42:32.928Z,100942.58
2018-04-07T05:43:37.119Z,100941.31
2018-04-07T05:44:41.316Z,100944.23
2018-04-07T05:45:45.942Z,100942.50
2018-04-07T05:46:50.438Z,100946.70
2018-04-07T05:47:54.983Z,100955.21
2018-04-07T05:48:59.641Z,100943.27
2018-04-07T05:50:03.849Z,100949.19
2018-04-07T05:51:08.093Z,100944.05
2018-04-07T05:52:13.383Z,100943.59
2018-04-07T05:53:19.275Z,100940.17
2018-04-07T05:54:24.343Z,100938.01
2018-04-07T05:55:28.767Z,100941.39
2018-04-07T05:56:33.013Z,100938.84
2018-04-07T05:57:37.201Z,100939.64
2018-04-07T05:58:41.393Z,100940.84
2018-04-07T05:59:45.766Z,100945.53
2018-04-07T06:00:50.104Z,100940.35
2018-04-07T06:01:54.813Z,100941.54
2018-04-07T06:02:59.250Z,100942.78
2018-04-07T06:04:03.434Z,100940.14
2018-04-07T06:05:08.390Z,100938.37
2018-04-07T06:06:12.778Z,100944.72
2018-04-07T06:07:17.374Z,100943.42
2018-04-07T06:08:21.947Z,100942.89
2018-04-07T06:09:27.464Z,100946.66
2018-04-07T06:10:31.677Z,100937.58
2018-04-07T06:11:35.923Z,100939.59
2018-04-07T06:12:40.124Z,100939.93
2018-04-07T06:13:45.578Z,100939.05
2018-04-07T06:14:50.830Z,100933.38
2018-04-07T06:15:55.134Z,100938.83
2018-04-07T06:16:59.782Z,100936.61
2018-04-07T06:18:03.962Z,100931.90
2018-04-07T06:19:08.151Z,100931.81
2018-04-07T06:20:12.343Z,100926.22
2018-04-07T06:21:16.854Z,100936.81
2018-04-07T06:22:21.532Z,100938.81
2018-04-07T06:23:25.900Z,100933.58
2018-04-07T06:24:30.167Z,100939.92
2018-04-07T06:25:34.351Z,100933.50
2018-04-07T06:26:38.571Z,100934.31
2018-04-07T06:27:42.902Z,100927.92
2018-04-07T06:28:48.835Z,100924.51
2018-04-07T06:29:53.181Z,100931.61
2018-04-07T06:30:58.029Z,100932.05
2018-04-07T06:32:02.255Z,100927.25
2018-04-07T06:33:06.455Z,100932.66
2018-04-07T06:34:10.708Z,100936.01
2018-04-07T06:35:15.179Z,100935.42
2018-04-07T06:36:20.737Z,100928.12
2018-04-07T06:37:25.819Z,100936.56
2018-04-07T06:38:30.804Z,100925.00
2018-04-07T06:39:35.036Z,100931.31
2018-04-07T06:40:39.283Z,100924.45
2018-04-07T06:41:45.049Z,100923.48
2018-04-07T06:42:50.099Z,100923.02
2018-04-07T06:43:54.824Z,100921.69
2018-04-07T06:44:59.107Z,100923.28
2018-04-07T06:46:04.086Z,100920.98
2018-04-07T06:47:08.674Z,100922.98
2018-04-07T06:48:12.869Z,100927.25
2018-04-07T06:49:19.468Z,100925.02
2018-04-07T06:50:24.290Z,100917.77
2018-04-07T06:51:28.592Z,100924.00
2018-04-07T06:52:32.833Z,100914.10
2018-04-07T06:53:37.024Z,100920.08
2018-04-07T06:54:41.215Z,100912.75
2018-04-07T06:55:45.648Z,100913.94
2018-04-07T06:56:49.892Z,100916.42
2018-04-07T06:57:54.150Z,100917.92
2018-04-07T06:58:58.358Z,100919.13
2018-04-07T07:00:03.334Z,100925.39
2018-04-07T07:01:07.544Z,100916.29
2018-04-07T07:02:11.798Z,100921.33
2018-04-07T07:03:16.187Z,100922.09
2018-04-07T07:04:20.724Z,100921.15
2018-04-07T07:05:25.705Z,100923.97
2018-04-07T07:06:29.917Z,100925.16
2018-04-07T07:07:34.114Z,100920.89
2018-04-07T07:08:38.741Z,100922.98
2018-04-07T07:09:42.948Z,100921.48
2018-04-07T07:10:48.953Z,100920.52
2018-04-07T07:11:53.360Z,100922.13
2018-04-07T07:12:58.504Z,100919.86
2018-04-07T07:14:02.767Z,100917.07
2018-04-07T07:15:06.962Z,100917.09
2018-04-07T07:16:11.185Z,100914.84
2018-04-07T07:17:18.027Z,100918.09
2018-04-07T07:18:22.358Z,100914.98
2018-04-07T07:19:26.701Z,100910.99
2018-04-07T07:20:31.675Z,100914.84
2018-04-07T07:21:36.656Z,100907.59
2018-04-07T07:22:40.857Z,100907.38
2018-04-07T07:23:45.814Z,100903.71
2018-04-07T07:24:50.481Z,100905.80
2018-04-07T07:25:55.139Z,100904.35
2018-04-07T07:26:59.414Z,100899.89
2018-04-07T07:28:03.653Z,100901.73
2018-04-07T07:29:07.864Z,100906.77
2018-04-07T07:30:12.073Z,100899.00
2018-04-07T07:31:17.137Z,100901.06
2018-04-07T07:32:22.097Z,100905.69
2018-04-07T07:33:26.462Z,100899.04
2018-04-07T07:34:30.680Z,100891.48
2018-04-07T07:35:34.875Z,100899.91
2018-04-07T07:36:39.132Z,100899.05
2018-04-07T07:37:44.341Z,100892.22
2018-04-07T07:38:48.672Z,100899.56
2018-04-07T07:39:53.060Z,100902.48
2018-04-07T07:40:57.962Z,100903.45
2018-04-07T07:42:02.283Z,100911.59
2018-04-07T07:43:06.506Z,100904.28
2018-04-07T07:44:10.708Z,100908.04
2018-04-07T07:45:15.290Z,100906.75
2018-04-07T07:46:20.119Z,100906.75
2018-04-07T07:47:24.544Z,100903.03
2018-04-07T07:48:29.133Z,100902.91
2018-04-07T07:49:33.353Z,100899.47
2018-04-07T07:50:38.310Z,100895.12
2018-04-07T07:51:42.523Z,100897.37
2018-04-07T07:52:47.651Z,100889.66
2018-04-07T07:53:52.566Z,100888.19
2018-04-07T07:54:56.965Z,100897.30
2018-04-07T07:56:01.192Z,100896.67
2018-04-07T07:57:05.424Z,100898.31
2018-04-07T07:58:09.692Z,100893.94
2018-04-07T07:59:15.048Z,100888.70
2018-04-07T08:00:19.760Z,100894.16
2018-04-07T08:01:24.003Z,100893.80
2018-04-07T08:02:28.278Z,100892.24
2018-04-07T08:03:32.602Z,100894.30
2018-04-07T08:04:37.591Z,100893.66
2018-04-07T08:05:41.818Z,100893.44
2018-04-07T08:06:47.302Z,100890.24
2018-04-07T08:07:51.679Z,100891.22
2018-04-07T08:08:56.847Z,100891.45
2018-04-07T08:10:01.069Z,100892.91
2018-04-07T08:11:05.263Z,100890.54
2018-04-07T08:12:09.471Z,100891.20
2018-04-07T08:13:13.797Z,100890.73
2018-04-07T08:14:18.687Z,100889.03
2018-04-07T08:15:23.018Z,100887.84
2018-04-07T08:16:27.838Z,100887.78
2018-04-07T08:17:32.080Z,100889.07
2018-04-07T08:18:36.292Z,100885.13
2018-04-07T08:19:40.525Z,100885.36
2018-04-07T08:20:46.197Z,100891.42
2018-04-07T08:21:50.585Z,100891.37
2018-04-07T08:22:55.202Z,100894.37
2018-04-07T08:24:00.322Z,100895.83
2018-04-07T08:25:04.526Z,100891.48
2018-04-07T08:26:08.812Z,100892.97
2018-04-07T08:27:13.776Z,100895.73
2018-04-07T08:28:19.104Z,100888.22
2018-04-07T08:29:23.473Z,100890.08
2018-04-07T08:30:28.113Z,100885.63
2018-04-07T08:31:32.356Z,100893.03
2018-04-07T08:32:36.603Z,100897.56
2018-04-07T08:33:40.800Z,100893.70
2018-04-07T08:34:46.712Z,100896.78
2018-04-07T08:35:51.494Z,100895.49
2018-04-07T08:36:55.942Z,100892.41
2018-04-07T08:38:00.956Z,100887.55
2018-04-07T08:39:05.187Z,100890.08
2018-04-07T08:40:09.381Z,100885.13
2018-04-07T08:41:14.523Z,100874.16
2018-04-07T08:42:19.459Z,100880.61
2018-04-07T08:43:23.844Z,100883.16
2018-04-07T08:44:28.315Z,100879.35
2018-04-07T08:45:32.731Z,100873.81
2018-04-07T08:46:36.948Z,100875.05
2018-04-07T08:47:41.165Z,100881.22
2018-04-07T08:48:45.661Z,100880.77
2018-04-07T08:49:49.970Z,100879.23
2018-04-07T08:50:54.486Z,100874.44
2018-04-07T08:51:58.784Z,100876.88
2018-04-07T08:53:02.983Z,100883.11
2018-04-07T08:54:08.006Z,100881.67
2018-04-07T08:55:13.205Z,100885.66
2018-04-07T08:56:17.630Z,100889.31
2018-04-07T08:57:22.708Z,100892.49
2018-04-07T08:58:27.665Z,100890.77
2018-04-07T08:59:31.886Z,100886.59
2018-04-07T09:00:36.091Z,100882.83
2018-04-07T09:01:40.308Z,100881.82
2018-04-07T09:02:44.984Z,100881.30
2018-04-07T09:03:49.231Z,100879.61
2018-04-07T09:04:53.432Z,100884.91
2018-04-07T09:05:57.654Z,100880.73
2018-04-07T09:07:01.869Z,100882.83
2018-04-07T09:08:06.346Z,100879.17
2018-04-07T09:09:10.546Z,100876.86
2018-04-07T09:10:15.569Z,100873.61
2018-04-07T09:11:20.986Z,100867.34
2018-04-07T09:12:25.301Z,100870.58
2018-04-07T09:13:29.533Z,100868.86
2018-04-07T09:14:34.489Z,100865.25
2018-04-07T09:15:38.735Z,100869.28
2018-04-07T09:16:42.932Z,100870.91
2018-04-07T09:17:47.286Z,100866.65
2018-04-07T09:18:52.751Z,100869.88
2018-04-07T09:19:57.288Z,100869.83
2018-04-07T09:21:01.746Z,100868.65
2018-04-07T09:22:06.845Z,100869.44
2018-04-07T09:23:11.176Z,100869.02
2018-04-07T09:24:15.701Z,100873.33
2018-04-07T09:25:20.072Z,100866.36
2018-04-07T09:26:25.364Z,100870.61
2018-04-07T09:27:29.728Z,100873.16
2018-04-07T09:28:33.938Z,100872.48
2018-04-07T09:29:38.145Z,100875.56
2018-04-07T09:30:42.367Z,100876.19
2018-04-07T09:31:46.949Z,100869.58
2018-04-07T09:32:52.037Z,100870.66
2018-04-07T09:33:56.685Z,100874.96
2018-04-07T09:35:00.965Z,100876.89
2018-04-07T09:36:05.176Z,100878.19
2018-04-07T09:37:09.437Z,100879.69
2018-04-07T09:38:14.914Z,100878.00
2018-04-07T09:39:19.735Z,100871.13
2018-04-07T09:40:24.749Z,100871.97
2018-04-07T09:41:29.117Z,100871.70
2018-04-07T09:42:33.723Z,100870.41
2018-04-07T09:43:37.942Z,100867.06
2018-04-07T09:44:42.147Z,100862.00
2018-04-07T09:45:46.634Z,100863.94
2018-04-07T09:46:51.879Z,100864.30
2018-04-07T09:47:56.478Z,100861.75
2018-04-07T09:49:01.855Z,100861.67
2018-04-07T09:50:06.079Z,100862.81
2018-04-07T09:51:10.284Z,100865.11
2018-04-07T09:52:14.879Z,100861.63
2018-04-07T09:53:20.206Z,100860.16
2018-04-07T09:54:24.504Z,100857.94
2018-04-07T09:55:29.218Z,100869.09
2018-04-07T09:56:33.425Z,100863.16
2018-04-07T09:57:38.383Z,100865.24
2018-04-07T09:58:42.642Z,100863.47
2018-04-07T09:59:48.285Z,100858.48
2018-04-07T10:00:53.132Z,100858.08
2018-04-07T10:01:59.239Z,100857.50
2018-04-07T10:03:03.449Z,100854.52
2018-04-07T10:04:07.678Z,100851.42
2018-04-07T10:05:11.874Z,100860.56
2018-04-07T10:06:16.590Z,100858.37
2018-04-07T10:07:22.322Z,100854.40
2018-04-07T10:08:26.733Z,100858.07
2018-04-07T10:09:31.016Z,100856.16
2018-04-07T10:10:36.733Z,100850.22
2018-04-07T10:11:40.950Z,100856.61
2018-04-07T10:12:46.729Z,100855.92
2018-04-07T10:13:51.868Z,100847.39
2018-04-07T10:14:57.079Z,100847.75
2018-04-07T10:16:02.076Z,100847.11
2018-04-07T10:17:06.281Z,100853.07
2018-04-07T10:18:10.495Z,100858.13
2018-04-07T10:19:17.067Z,100853.14
2018-04-07T10:20:22.526Z,100852.52
2018-04-07T10:21:26.974Z,100846.39
2018-04-07T10:22:31.939Z,100847.23
2018-04-07T10:23:36.144Z,100847.32
2018-04-07T10:24:40.369Z,100850.27
2018-04-07T10:25:44.770Z,100838.60
2018-04-07T10:26:50.919Z,100844.03
2018-04-07T10:27:55.755Z,100845.92
2018-04-07T10:29:00.808Z,100843.52
2018-04-07T10:30:05.029Z,100849.06
2018-04-07T10:31:09.261Z,100842.45
2018-04-07T10:32:13.516Z,100849.15
2018-04-07T10:33:18.129Z,100844.15
2018-04-07T10:34:22.448Z,100844.84
2018-04-07T10:35:26.710Z,100846.36
2018-04-07T10:36:30.977Z,100835.73
2018-04-07T10:37:35.169Z,100837.25
2018-04-07T10:38:39.434Z,100828.66
2018-04-07T10:39:44.249Z,100831.67
2018-04-07T10:40:49.345Z,100831.38
2018-04-07T10:41:53.992Z,100831.48
2018-04-07T10:42:58.345Z,100827.77
2018-04-07T10:44:03.337Z,100825.02
2018-04-07T10:45:07.536Z,100830.42
2018-04-07T10:46:11.735Z,100825.55
2018-04-07T10:47:16.593Z,100826.50
2018-04-07T10:48:22.262Z,100827.31
2018-04-07T10:49:27.406Z,100827.61
2018-04-07T10:50:32.400Z,100832.00
2018-04-07T10:51:36.598Z,100820.19
2018-04-07T10:52:40.857Z,100818.02
2018-04-07T10:53:45.142Z,100822.13
2018-04-07T10:54:50.229Z,100824.05
2018-04-07T10:55:54.536Z,100826.98
2018-04-07T10:56:58.915Z,100821.72
2018-04-07T10:58:03.126Z,100821.62
2018-04-07T10:59:08.147Z,100822.78
2018-04-07T11:00:12.355Z,100830.50
2018-04-07T11:01:17.888Z,100828.17
2018-04-07T11:02:22.148Z,100822.92
2018-04-07T11:03:26.605Z,100827.39
2018-04-07T11:04:30.862Z,100827.69
2018-04-07T11:05:35.867Z,100821.30
2018-04-07T11:06:41.580Z,100826.84
2018-04-07T11:07:45.904Z,100825.94
2018-04-07T11:08:51.031Z,100824.02
2018-04-07T11:09:55.362Z,100821.80
2018-04-07T11:11:01.083Z,100815.91
2018-04-07T11:12:05.311Z,100824.02
2018-04-07T11:13:09.526Z,100815.84
2018-04-07T11:14:13.855Z,100821.05
2018-04-07T11:15:18.157Z,100819.83
2018-04-07T11:16:22.537Z,100814.62
2018-04-07T11:17:26.881Z,100813.17
2018-04-07T11:18:31.975Z,100816.33
2018-04-07T11:19:36.188Z,100811.41
2018-04-07T11:20:40.379Z,100813.98
2018-04-07T11:21:47.867Z,100813.88
2018-04-07T11:22:52.590Z,100811.52
2018-04-07T11:23:57.025Z,100809.13
2018-04-07T11:25:02.083Z,100814.44
2018-04-07T11:26:06.300Z,100812.06
2018-04-07T11:27:10.515Z,100807.95
2018-04-07T11:28:16.933Z,100813.37
2018-04-07T11:29:22.168Z,100811.27
2018-04-07T11:30:26.790Z,100809.20
2018-04-07T11:31:31.112Z,100805.28
2018-04-07T11:32:35.339Z,100806.25
2018-04-07T11:33:39.534Z,100807.25
2018-04-07T11:34:45.574Z,100803.55
2018-04-07T11:35:50.743Z,100804.55
2018-04-07T11:36:55.320Z,100808.59
2018-04-07T11:37:59.811Z,100810.27
2018-04-07T11:39:04.822Z,100806.65
2018-04-07T11:40:09.036Z,100800.34
2018-04-07T11:41:14.027Z,100810.44
2018-04-07T11:42:20.397Z,100800.30
2018-04-07T11:43:24.908Z,100808.54
2018-04-07T11:44:30.482Z,100802.84
2018-04-07T11:45:34.762Z,100803.50
2018-04-07T11:46:38.984Z,100800.77
2018-04-07T11:47:43.485Z,100797.51
2018-04-07T11:48:48.129Z,100789.27
2018-04-07T11:49:53.029Z,100784.58
2018-04-07T11:50:57.657Z,100780.07
2018-04-07T11:52:02.070Z,100778.50
2018-04-07T11:53:06.270Z,100780.94
2018-04-07T11:54:10.500Z,100772.02
2018-04-07T11:55:17.323Z,100775.59
2018-04-07T11:56:23.588Z,100757.89
2018-04-07T11:57:27.924Z,100774.31
2018-04-07T11:58:32.786Z,100762.42
2018-04-07T11:59:37.007Z,100765.98
2018-04-07T12:00:41.213Z,100763.04
2018-04-07T12:01:45.829Z,100767.00
2018-04-07T12:02:50.669Z,100774.09
2018-04-07T12:03:55.054Z,100769.89
2018-04-07T12:04:59.264Z,100766.50
2018-04-07T12:06:03.531Z,100766.80
2018-04-07T12:07:07.770Z,100762.94
2018-04-07T12:08:11.977Z,100774.95
2018-04-07T12:09:16.467Z,100770.28
2018-04-07T12:10:21.813Z,100758.87
2018-04-07T12:11:26.598Z,100762.01
2018-04-07T12:12:31.848Z,100757.41
2018-04-07T12:13:36.832Z,100761.27
2018-04-07T12:14:41.053Z,100753.02
2018-04-07T12:15:46.542Z,100749.04
2018-04-07T12:16:51.707Z,100748.38
2018-04-07T12:17:56.096Z,100748.84